sensor_id;sensor_type;location;lat;lon;timestamp;P1;durP1;ratioP1;P2;durP2;ratioP2
41755;SDS011;27435;48.480;9.258;2024-01-15T00:00:27;25.13;;;8.97;;
41755;SDS011;27435;48.480;9.258;2024-01-15T00:02:55;18.97;;;7.67;;
41755;SDS011;27435;48.480;9.258;2024-01-15T00:05:25;22.03;;;7.90;;
41755;SDS011;27435;48.480;9.258;2024-01-15T00:07:53;24.77;;;8.40;;
41755;SDS011;27435;48.480;9.258;2024-01-15T00:10:30;18.77;;;7.77;;
41755;SDS011;27435;48.480;9.258;2024-01-15T00:13:02;18.37;;;8.17;;
41755;SDS011;27435;48.480;9.258;2024-01-15T00:15:43;18.77;;;6.40;;
41755;SDS011;27435;48.480;9.258;2024-01-15T00:18:08;20.17;;;8.70;;
41755;SDS011;27435;48.480;9.258;2024-01-15T00:20:36;16.53;;;6.97;;
41755;SDS011;27435;48.480;9.258;2024-01-15T00:23:05;19.93;;;7.47;;
41755;SDS011;27435;48.480;9.258;2024-01-15T00:25:40;14.95;;;5.60;;
41755;SDS011;27435;48.480;9.258;2024-01-15T00:28:19;15.20;;;5.97;;
41755;SDS011;27435;48.480;9.258;2024-01-15T00:30:45;17.90;;;6.67;;
41755;SDS011;27435;48.480;9.258;2024-01-15T00:33:16;14.40;;;6.47;;
41755;SDS011;27435;48.480;9.258;2024-01-15T00:35:44;17.37;;;6.70;;
41755;SDS011;27435;48.480;9.258;2024-01-15T00:38:12;12.50;;;4.93;;
41755;SDS011;27435;48.480;9.258;2024-01-15T00:40:38;17.47;;;6.47;;
41755;SDS011;27435;48.480;9.258;2024-01-15T00:43:04;21.40;;;7.20;;
41755;SDS011;27435;48.480;9.258;2024-01-15T00:45:29;17.47;;;6.97;;
41755;SDS011;27435;48.480;9.258;2024-01-15T00:47:55;18.13;;;6.90;;
41755;SDS011;27435;48.480;9.258;2024-01-15T00:50:21;20.73;;;7.13;;
41755;SDS011;27435;48.480;9.258;2024-01-15T00:52:47;15.67;;;6.03;;
41755;SDS011;27435;48.480;9.258;2024-01-15T00:55:12;15.50;;;5.57;;
41755;SDS011;27435;48.480;9.258;2024-01-15T00:57:38;21.00;;;8.13;;
41755;SDS011;27435;48.480;9.258;2024-01-15T01:00:04;26.10;;;9.47;;
41755;SDS011;27435;48.480;9.258;2024-01-15T01:02:31;20.23;;;7.53;;
41755;SDS011;27435;48.480;9.258;2024-01-15T01:04:57;22.30;;;7.60;;
41755;SDS011;27435;48.480;9.258;2024-01-15T01:07:22;22.43;;;7.40;;
41755;SDS011;27435;48.480;9.258;2024-01-15T01:09:48;20.47;;;8.53;;
41755;SDS011;27435;48.480;9.258;2024-01-15T01:12:14;21.40;;;8.40;;
41755;SDS011;27435;48.480;9.258;2024-01-15T01:14:40;15.73;;;6.90;;
41755;SDS011;27435;48.480;9.258;2024-01-15T01:17:05;20.13;;;9.23;;
41755;SDS011;27435;48.480;9.258;2024-01-15T01:19:31;18.87;;;6.30;;
41755;SDS011;27435;48.480;9.258;2024-01-15T01:21:56;16.73;;;7.00;;
41755;SDS011;27435;48.480;9.258;2024-01-15T01:24:22;13.00;;;5.53;;
41755;SDS011;27435;48.480;9.258;2024-01-15T01:26:48;12.70;;;5.40;;
41755;SDS011;27435;48.480;9.258;2024-01-15T01:29:14;18.07;;;7.50;;
41755;SDS011;27435;48.480;9.258;2024-01-15T01:31:46;15.80;;;5.93;;
41755;SDS011;27435;48.480;9.258;2024-01-15T01:34:15;14.37;;;6.07;;
41755;SDS011;27435;48.480;9.258;2024-01-15T01:36:44;18.33;;;5.30;;
41755;SDS011;27435;48.480;9.258;2024-01-15T01:39:10;21.33;;;5.80;;
41755;SDS011;27435;48.480;9.258;2024-01-15T01:41:35;19.03;;;7.17;;
41755;SDS011;27435;48.480;9.258;2024-01-15T01:44:03;16.70;;;6.20;;
41755;SDS011;27435;48.480;9.258;2024-01-15T01:46:29;17.80;;;5.77;;
41755;SDS011;27435;48.480;9.258;2024-01-15T01:48:55;16.30;;;5.83;;
41755;SDS011;27435;48.480;9.258;2024-01-15T01:51:24;13.47;;;5.23;;
41755;SDS011;27435;48.480;9.258;2024-01-15T01:53:50;17.67;;;5.40;;
41755;SDS011;27435;48.480;9.258;2024-01-15T01:56:16;14.87;;;6.17;;
41755;SDS011;27435;48.480;9.258;2024-01-15T01:58:43;16.57;;;6.30;;
41755;SDS011;27435;48.480;9.258;2024-01-15T02:01:12;16.20;;;6.30;;
41755;SDS011;27435;48.480;9.258;2024-01-15T02:03:38;14.43;;;5.67;;
41755;SDS011;27435;48.480;9.258;2024-01-15T02:06:08;19.63;;;6.87;;
41755;SDS011;27435;48.480;9.258;2024-01-15T02:08:34;23.73;;;6.90;;
41755;SDS011;27435;48.480;9.258;2024-01-15T02:11:00;17.27;;;6.07;;
41755;SDS011;27435;48.480;9.258;2024-01-15T02:13:25;15.07;;;5.83;;
41755;SDS011;27435;48.480;9.258;2024-01-15T02:15:51;11.00;;;4.07;;
41755;SDS011;27435;48.480;9.258;2024-01-15T02:18:17;15.40;;;5.70;;
41755;SDS011;27435;48.480;9.258;2024-01-15T02:20:42;13.77;;;4.93;;
41755;SDS011;27435;48.480;9.258;2024-01-15T02:23:13;18.77;;;6.23;;
41755;SDS011;27435;48.480;9.258;2024-01-15T02:25:40;16.97;;;6.30;;
41755;SDS011;27435;48.480;9.258;2024-01-15T02:28:13;16.87;;;6.17;;
41755;SDS011;27435;48.480;9.258;2024-01-15T02:30:40;12.77;;;4.70;;
41755;SDS011;27435;48.480;9.258;2024-01-15T02:33:07;15.23;;;5.10;;
41755;SDS011;27435;48.480;9.258;2024-01-15T02:35:33;15.13;;;5.47;;
41755;SDS011;27435;48.480;9.258;2024-01-15T02:38:03;19.77;;;6.80;;
41755;SDS011;27435;48.480;9.258;2024-01-15T02:40:29;14.30;;;4.57;;
41755;SDS011;27435;48.480;9.258;2024-01-15T02:42:55;18.57;;;6.43;;
41755;SDS011;27435;48.480;9.258;2024-01-15T02:45:21;17.50;;;5.23;;
41755;SDS011;27435;48.480;9.258;2024-01-15T02:47:47;16.87;;;5.70;;
41755;SDS011;27435;48.480;9.258;2024-01-15T02:50:13;17.27;;;6.40;;
41755;SDS011;27435;48.480;9.258;2024-01-15T02:52:39;13.03;;;5.00;;
41755;SDS011;27435;48.480;9.258;2024-01-15T02:55:05;19.73;;;6.80;;
41755;SDS011;27435;48.480;9.258;2024-01-15T02:57:31;15.30;;;5.70;;
41755;SDS011;27435;48.480;9.258;2024-01-15T02:59:56;15.07;;;5.53;;
41755;SDS011;27435;48.480;9.258;2024-01-15T03:02:22;20.57;;;7.73;;
41755;SDS011;27435;48.480;9.258;2024-01-15T03:04:48;11.17;;;4.83;;
41755;SDS011;27435;48.480;9.258;2024-01-15T03:07:13;15.97;;;5.93;;
41755;SDS011;27435;48.480;9.258;2024-01-15T03:09:39;15.47;;;6.30;;
41755;SDS011;27435;48.480;9.258;2024-01-15T03:12:05;10.93;;;4.53;;
41755;SDS011;27435;48.480;9.258;2024-01-15T03:14:30;15.77;;;5.20;;
41755;SDS011;27435;48.480;9.258;2024-01-15T03:16:56;15.63;;;5.07;;
41755;SDS011;27435;48.480;9.258;2024-01-15T03:19:22;12.77;;;4.43;;
41755;SDS011;27435;48.480;9.258;2024-01-15T03:21:47;14.90;;;5.47;;
41755;SDS011;27435;48.480;9.258;2024-01-15T03:24:13;11.90;;;4.50;;
41755;SDS011;27435;48.480;9.258;2024-01-15T03:26:39;12.80;;;5.13;;
41755;SDS011;27435;48.480;9.258;2024-01-15T03:29:05;9.63;;;3.83;;
41755;SDS011;27435;48.480;9.258;2024-01-15T03:31:31;13.13;;;5.13;;
41755;SDS011;27435;48.480;9.258;2024-01-15T03:33:56;13.50;;;5.23;;
41755;SDS011;27435;48.480;9.258;2024-01-15T03:36:22;13.20;;;4.97;;
41755;SDS011;27435;48.480;9.258;2024-01-15T03:38:48;13.23;;;5.60;;
41755;SDS011;27435;48.480;9.258;2024-01-15T03:41:13;18.07;;;6.50;;
41755;SDS011;27435;48.480;9.258;2024-01-15T03:43:39;14.33;;;4.97;;
41755;SDS011;27435;48.480;9.258;2024-01-15T03:46:05;15.10;;;4.73;;
41755;SDS011;27435;48.480;9.258;2024-01-15T04:38:59;21.97;;;7.30;;
41755;SDS011;27435;48.480;9.258;2024-01-15T04:41:24;21.20;;;7.27;;
41755;SDS011;27435;48.480;9.258;2024-01-15T04:43:50;20.80;;;8.53;;
41755;SDS011;27435;48.480;9.258;2024-01-15T04:46:15;13.90;;;5.33;;
41755;SDS011;27435;48.480;9.258;2024-01-15T04:48:41;13.47;;;6.23;;
41755;SDS011;27435;48.480;9.258;2024-01-15T04:51:08;20.90;;;7.23;;
41755;SDS011;27435;48.480;9.258;2024-01-15T04:53:34;15.57;;;5.93;;
41755;SDS011;27435;48.480;9.258;2024-01-15T04:56:00;26.03;;;7.43;;
41755;SDS011;27435;48.480;9.258;2024-01-15T04:58:26;24.77;;;7.73;;
41755;SDS011;27435;48.480;9.258;2024-01-15T05:00:52;21.77;;;7.93;;
41755;SDS011;27435;48.480;9.258;2024-01-15T05:03:19;19.47;;;7.27;;
41755;SDS011;27435;48.480;9.258;2024-01-15T05:05:45;26.97;;;9.00;;
41755;SDS011;27435;48.480;9.258;2024-01-15T05:08:10;28.13;;;8.60;;
41755;SDS011;27435;48.480;9.258;2024-01-15T05:10:36;22.37;;;8.40;;
41755;SDS011;27435;48.480;9.258;2024-01-15T05:13:02;23.07;;;8.07;;
41755;SDS011;27435;48.480;9.258;2024-01-15T05:15:28;21.73;;;8.10;;
41755;SDS011;27435;48.480;9.258;2024-01-15T05:17:53;24.63;;;8.23;;
41755;SDS011;27435;48.480;9.258;2024-01-15T05:20:19;17.60;;;7.13;;
41755;SDS011;27435;48.480;9.258;2024-01-15T05:22:44;28.00;;;9.47;;
41755;SDS011;27435;48.480;9.258;2024-01-15T05:25:10;21.77;;;7.13;;
41755;SDS011;27435;48.480;9.258;2024-01-15T05:27:35;23.83;;;9.33;;
41755;SDS011;27435;48.480;9.258;2024-01-15T05:30:01;25.20;;;9.37;;
41755;SDS011;27435;48.480;9.258;2024-01-15T05:32:27;19.00;;;7.13;;
41755;SDS011;27435;48.480;9.258;2024-01-15T05:34:52;22.10;;;7.63;;
41755;SDS011;27435;48.480;9.258;2024-01-15T05:37:18;24.00;;;9.37;;
41755;SDS011;27435;48.480;9.258;2024-01-15T05:39:43;23.17;;;8.27;;
41755;SDS011;27435;48.480;9.258;2024-01-15T05:42:09;23.20;;;7.50;;
41755;SDS011;27435;48.480;9.258;2024-01-15T05:44:35;20.53;;;8.50;;
41755;SDS011;27435;48.480;9.258;2024-01-15T05:47:00;23.57;;;8.77;;
41755;SDS011;27435;48.480;9.258;2024-01-15T05:49:26;21.53;;;9.00;;
41755;SDS011;27435;48.480;9.258;2024-01-15T05:51:51;20.10;;;7.80;;
41755;SDS011;27435;48.480;9.258;2024-01-15T05:54:18;19.63;;;8.03;;
41755;SDS011;27435;48.480;9.258;2024-01-15T05:56:44;18.73;;;7.23;;
41755;SDS011;27435;48.480;9.258;2024-01-15T05:59:10;17.87;;;7.57;;
41755;SDS011;27435;48.480;9.258;2024-01-15T06:01:36;19.87;;;7.93;;
41755;SDS011;27435;48.480;9.258;2024-01-15T06:04:01;18.40;;;6.67;;
41755;SDS011;27435;48.480;9.258;2024-01-15T06:06:27;19.17;;;7.57;;
41755;SDS011;27435;48.480;9.258;2024-01-15T06:08:53;16.57;;;6.53;;
41755;SDS011;27435;48.480;9.258;2024-01-15T06:11:18;18.20;;;6.97;;
41755;SDS011;27435;48.480;9.258;2024-01-15T06:13:44;20.80;;;6.23;;
41755;SDS011;27435;48.480;9.258;2024-01-15T06:16:14;21.00;;;8.03;;
41755;SDS011;27435;48.480;9.258;2024-01-15T06:18:41;15.07;;;6.37;;
41755;SDS011;27435;48.480;9.258;2024-01-15T06:21:07;15.40;;;6.43;;
41755;SDS011;27435;48.480;9.258;2024-01-15T06:23:35;18.40;;;6.87;;
41755;SDS011;27435;48.480;9.258;2024-01-15T06:26:01;19.70;;;5.90;;
41755;SDS011;27435;48.480;9.258;2024-01-15T06:28:28;22.33;;;8.73;;
41755;SDS011;27435;48.480;9.258;2024-01-15T06:30:54;16.90;;;6.57;;
41755;SDS011;27435;48.480;9.258;2024-01-15T06:33:20;18.57;;;6.90;;
41755;SDS011;27435;48.480;9.258;2024-01-15T06:35:45;18.03;;;7.47;;
41755;SDS011;27435;48.480;9.258;2024-01-15T06:38:11;19.50;;;7.20;;
41755;SDS011;27435;48.480;9.258;2024-01-15T06:40:36;21.77;;;8.47;;
41755;SDS011;27435;48.480;9.258;2024-01-15T06:43:02;20.73;;;7.83;;
41755;SDS011;27435;48.480;9.258;2024-01-15T06:45:28;23.97;;;7.90;;
41755;SDS011;27435;48.480;9.258;2024-01-15T06:47:53;20.07;;;7.30;;
41755;SDS011;27435;48.480;9.258;2024-01-15T06:50:19;21.77;;;8.10;;
41755;SDS011;27435;48.480;9.258;2024-01-15T06:52:44;20.70;;;7.27;;
41755;SDS011;27435;48.480;9.258;2024-01-15T06:55:10;19.20;;;7.80;;
41755;SDS011;27435;48.480;9.258;2024-01-15T06:57:36;18.50;;;6.23;;
41755;SDS011;27435;48.480;9.258;2024-01-15T07:00:01;19.37;;;7.50;;
41755;SDS011;27435;48.480;9.258;2024-01-15T07:02:32;21.70;;;7.93;;
41755;SDS011;27435;48.480;9.258;2024-01-15T07:04:57;18.60;;;6.77;;
41755;SDS011;27435;48.480;9.258;2024-01-15T07:07:23;15.50;;;6.07;;
41755;SDS011;27435;48.480;9.258;2024-01-15T07:09:49;18.77;;;6.70;;
41755;SDS011;27435;48.480;9.258;2024-01-15T07:12:17;17.87;;;7.03;;
41755;SDS011;27435;48.480;9.258;2024-01-15T07:14:42;16.60;;;6.57;;
41755;SDS011;27435;48.480;9.258;2024-01-15T07:17:08;14.97;;;6.70;;
41755;SDS011;27435;48.480;9.258;2024-01-15T07:19:33;22.57;;;7.47;;
41755;SDS011;27435;48.480;9.258;2024-01-15T07:21:59;16.10;;;6.90;;
41755;SDS011;27435;48.480;9.258;2024-01-15T07:24:25;18.93;;;6.80;;
41755;SDS011;27435;48.480;9.258;2024-01-15T07:26:50;14.83;;;5.53;;
41755;SDS011;27435;48.480;9.258;2024-01-15T07:29:16;13.57;;;5.70;;
41755;SDS011;27435;48.480;9.258;2024-01-15T07:31:47;15.50;;;5.27;;
41755;SDS011;27435;48.480;9.258;2024-01-15T07:34:14;16.00;;;5.70;;
41755;SDS011;27435;48.480;9.258;2024-01-15T07:36:39;16.50;;;5.73;;
41755;SDS011;27435;48.480;9.258;2024-01-15T07:39:05;16.03;;;5.43;;
41755;SDS011;27435;48.480;9.258;2024-01-15T07:41:31;11.70;;;4.47;;
41755;SDS011;27435;48.480;9.258;2024-01-15T07:43:57;11.37;;;4.73;;
41755;SDS011;27435;48.480;9.258;2024-01-15T07:46:22;9.50;;;3.53;;
41755;SDS011;27435;48.480;9.258;2024-01-15T07:48:48;7.53;;;2.93;;
41755;SDS011;27435;48.480;9.258;2024-01-15T07:51:16;10.10;;;3.57;;
41755;SDS011;27435;48.480;9.258;2024-01-15T07:53:41;6.13;;;2.60;;
41755;SDS011;27435;48.480;9.258;2024-01-15T07:56:07;7.13;;;2.60;;
41755;SDS011;27435;48.480;9.258;2024-01-15T07:58:33;8.67;;;2.27;;
41755;SDS011;27435;48.480;9.258;2024-01-15T08:01:01;6.60;;;2.80;;
41755;SDS011;27435;48.480;9.258;2024-01-15T08:03:26;6.23;;;2.43;;
41755;SDS011;27435;48.480;9.258;2024-01-15T08:05:52;5.17;;;2.17;;
41755;SDS011;27435;48.480;9.258;2024-01-15T08:08:19;7.63;;;3.57;;
41755;SDS011;27435;48.480;9.258;2024-01-15T08:10:46;8.83;;;2.87;;
41755;SDS011;27435;48.480;9.258;2024-01-15T08:13:12;7.87;;;3.07;;
41755;SDS011;27435;48.480;9.258;2024-01-15T08:15:37;6.80;;;2.70;;
41755;SDS011;27435;48.480;9.258;2024-01-15T08:18:03;4.43;;;2.13;;
41755;SDS011;27435;48.480;9.258;2024-01-15T08:20:29;5.17;;;2.03;;
41755;SDS011;27435;48.480;9.258;2024-01-15T08:22:54;5.43;;;2.00;;
41755;SDS011;27435;48.480;9.258;2024-01-15T08:25:20;4.20;;;1.97;;
41755;SDS011;27435;48.480;9.258;2024-01-15T08:27:45;5.83;;;1.97;;
41755;SDS011;27435;48.480;9.258;2024-01-15T08:30:11;5.03;;;1.90;;
41755;SDS011;27435;48.480;9.258;2024-01-15T08:32:37;3.63;;;1.47;;
41755;SDS011;27435;48.480;9.258;2024-01-15T08:35:07;5.03;;;1.90;;
41755;SDS011;27435;48.480;9.258;2024-01-15T08:37:34;7.30;;;2.00;;
41755;SDS011;27435;48.480;9.258;2024-01-15T08:39:59;5.23;;;2.03;;
41755;SDS011;27435;48.480;9.258;2024-01-15T08:42:25;5.63;;;2.17;;
41755;SDS011;27435;48.480;9.258;2024-01-15T08:44:51;5.70;;;2.23;;
41755;SDS011;27435;48.480;9.258;2024-01-15T08:47:16;8.70;;;2.50;;
41755;SDS011;27435;48.480;9.258;2024-01-15T08:49:42;8.57;;;2.37;;
41755;SDS011;27435;48.480;9.258;2024-01-15T08:52:10;9.03;;;2.60;;
41755;SDS011;27435;48.480;9.258;2024-01-15T08:54:36;7.27;;;2.80;;
41755;SDS011;27435;48.480;9.258;2024-01-15T08:57:01;8.00;;;2.20;;
41755;SDS011;27435;48.480;9.258;2024-01-15T08:59:27;7.17;;;2.60;;
41755;SDS011;27435;48.480;9.258;2024-01-15T09:01:53;7.33;;;2.37;;
41755;SDS011;27435;48.480;9.258;2024-01-15T09:04:19;10.10;;;2.00;;
41755;SDS011;27435;48.480;9.258;2024-01-15T09:06:45;5.73;;;2.10;;
41755;SDS011;27435;48.480;9.258;2024-01-15T09:09:14;5.90;;;2.23;;
41755;SDS011;27435;48.480;9.258;2024-01-15T09:11:40;4.03;;;1.67;;
41755;SDS011;27435;48.480;9.258;2024-01-15T09:14:06;3.53;;;1.67;;
41755;SDS011;27435;48.480;9.258;2024-01-15T09:16:33;3.50;;;1.60;;
41755;SDS011;27435;48.480;9.258;2024-01-15T09:18:58;3.67;;;1.20;;
41755;SDS011;27435;48.480;9.258;2024-01-15T09:21:24;4.30;;;1.70;;
41755;SDS011;27435;48.480;9.258;2024-01-15T09:23:50;4.07;;;1.27;;
41755;SDS011;27435;48.480;9.258;2024-01-15T09:26:16;4.03;;;1.97;;
41755;SDS011;27435;48.480;9.258;2024-01-15T09:28:42;2.93;;;1.80;;
41755;SDS011;27435;48.480;9.258;2024-01-15T09:31:08;5.23;;;2.27;;
41755;SDS011;27435;48.480;9.258;2024-01-15T09:33:33;7.23;;;1.90;;
41755;SDS011;27435;48.480;9.258;2024-01-15T09:36:02;4.47;;;2.27;;
41755;SDS011;27435;48.480;9.258;2024-01-15T09:38:29;5.13;;;2.23;;
41755;SDS011;27435;48.480;9.258;2024-01-15T09:40:55;7.40;;;2.37;;
41755;SDS011;27435;48.480;9.258;2024-01-15T09:43:21;6.97;;;2.83;;
41755;SDS011;27435;48.480;9.258;2024-01-15T09:45:47;6.37;;;1.93;;
41755;SDS011;27435;48.480;9.258;2024-01-15T09:48:14;8.43;;;3.17;;
41755;SDS011;27435;48.480;9.258;2024-01-15T09:50:40;4.43;;;1.80;;
41755;SDS011;27435;48.480;9.258;2024-01-15T09:53:08;3.63;;;1.80;;
41755;SDS011;27435;48.480;9.258;2024-01-15T09:55:35;4.83;;;2.63;;
41755;SDS011;27435;48.480;9.258;2024-01-15T09:58:03;7.03;;;2.50;;
41755;SDS011;27435;48.480;9.258;2024-01-15T10:00:29;3.70;;;1.90;;
41755;SDS011;27435;48.480;9.258;2024-01-15T10:02:57;3.57;;;2.23;;
41755;SDS011;27435;48.480;9.258;2024-01-15T10:05:25;3.93;;;1.60;;
41755;SDS011;27435;48.480;9.258;2024-01-15T10:07:52;3.53;;;1.33;;
41755;SDS011;27435;48.480;9.258;2024-01-15T10:10:19;5.93;;;2.00;;
41755;SDS011;27435;48.480;9.258;2024-01-15T10:12:47;5.83;;;2.60;;
41755;SDS011;27435;48.480;9.258;2024-01-15T10:15:13;4.87;;;1.90;;
41755;SDS011;27435;48.480;9.258;2024-01-15T10:17:39;3.37;;;1.40;;
41755;SDS011;27435;48.480;9.258;2024-01-15T10:20:09;6.20;;;2.00;;
41755;SDS011;27435;48.480;9.258;2024-01-15T10:22:35;4.47;;;1.90;;
41755;SDS011;27435;48.480;9.258;2024-01-15T10:25:04;5.17;;;1.90;;
41755;SDS011;27435;48.480;9.258;2024-01-15T10:27:30;3.73;;;1.77;;
41755;SDS011;27435;48.480;9.258;2024-01-15T10:29:59;3.20;;;1.40;;
41755;SDS011;27435;48.480;9.258;2024-01-15T10:32:25;3.37;;;1.40;;
41755;SDS011;27435;48.480;9.258;2024-01-15T10:34:52;2.83;;;1.37;;
41755;SDS011;27435;48.480;9.258;2024-01-15T10:37:17;4.03;;;1.63;;
41755;SDS011;27435;48.480;9.258;2024-01-15T10:39:43;3.80;;;1.73;;
41755;SDS011;27435;48.480;9.258;2024-01-15T10:42:11;2.90;;;1.50;;
41755;SDS011;27435;48.480;9.258;2024-01-15T10:44:36;5.43;;;1.87;;
41755;SDS011;27435;48.480;9.258;2024-01-15T10:47:02;2.33;;;1.30;;
41755;SDS011;27435;48.480;9.258;2024-01-15T10:49:29;3.23;;;1.33;;
41755;SDS011;27435;48.480;9.258;2024-01-15T10:51:56;5.03;;;1.73;;
41755;SDS011;27435;48.480;9.258;2024-01-15T10:54:22;6.03;;;1.83;;
41755;SDS011;27435;48.480;9.258;2024-01-15T10:56:49;3.87;;;1.47;;
41755;SDS011;27435;48.480;9.258;2024-01-15T10:59:16;6.10;;;1.53;;
41755;SDS011;27435;48.480;9.258;2024-01-15T11:01:44;5.33;;;1.80;;
41755;SDS011;27435;48.480;9.258;2024-01-15T11:04:11;3.60;;;1.50;;
41755;SDS011;27435;48.480;9.258;2024-01-15T11:06:44;6.43;;;1.47;;
41755;SDS011;27435;48.480;9.258;2024-01-15T11:09:11;3.17;;;1.40;;
41755;SDS011;27435;48.480;9.258;2024-01-15T11:11:41;4.83;;;2.10;;
41755;SDS011;27435;48.480;9.258;2024-01-15T11:14:09;6.73;;;1.93;;
41755;SDS011;27435;48.480;9.258;2024-01-15T11:16:54;7.77;;;1.90;;
41755;SDS011;27435;48.480;9.258;2024-01-15T11:19:21;3.93;;;1.83;;
41755;SDS011;27435;48.480;9.258;2024-01-15T11:21:47;6.53;;;2.17;;
41755;SDS011;27435;48.480;9.258;2024-01-15T11:24:32;3.83;;;1.37;;
41755;SDS011;27435;48.480;9.258;2024-01-15T11:26:59;3.60;;;1.60;;
41755;SDS011;27435;48.480;9.258;2024-01-15T11:31:59;4.93;;;2.17;;
41755;SDS011;27435;48.480;9.258;2024-01-15T11:37:23;5.00;;;2.35;;
41755;SDS011;27435;48.480;9.258;2024-01-15T11:39:56;6.47;;;2.03;;
41755;SDS011;27435;48.480;9.258;2024-01-15T11:42:35;5.65;;;2.65;;
41755;SDS011;27435;48.480;9.258;2024-01-15T11:45:01;3.57;;;1.70;;
41755;SDS011;27435;48.480;9.258;2024-01-15T11:53:02;5.23;;;2.17;;
41755;SDS011;27435;48.480;9.258;2024-01-15T11:55:38;3.53;;;1.67;;
41755;SDS011;27435;48.480;9.258;2024-01-15T11:58:09;4.13;;;1.90;;
41755;SDS011;27435;48.480;9.258;2024-01-15T12:00:35;3.83;;;1.93;;
41755;SDS011;27435;48.480;9.258;2024-01-15T12:03:12;3.43;;;1.57;;
41755;SDS011;27435;48.480;9.258;2024-01-15T12:05:38;10.57;;;2.40;;
41755;SDS011;27435;48.480;9.258;2024-01-15T12:08:04;7.47;;;2.60;;
41755;SDS011;27435;48.480;9.258;2024-01-15T12:10:39;5.30;;;1.83;;
41755;SDS011;27435;48.480;9.258;2024-01-15T12:13:13;4.20;;;1.57;;
41755;SDS011;27435;48.480;9.258;2024-01-15T12:15:40;5.07;;;2.53;;
41755;SDS011;27435;48.480;9.258;2024-01-15T12:18:07;14.23;;;5.37;;
41755;SDS011;27435;48.480;9.258;2024-01-15T12:20:33;5.33;;;2.23;;
41755;SDS011;27435;48.480;9.258;2024-01-15T12:23:00;9.90;;;2.77;;
41755;SDS011;27435;48.480;9.258;2024-01-15T12:25:28;8.60;;;2.80;;
41755;SDS011;27435;48.480;9.258;2024-01-15T12:27:55;4.10;;;1.90;;
41755;SDS011;27435;48.480;9.258;2024-01-15T12:30:21;4.37;;;2.00;;
41755;SDS011;27435;48.480;9.258;2024-01-15T12:32:47;4.43;;;2.43;;
41755;SDS011;27435;48.480;9.258;2024-01-15T12:35:13;4.80;;;1.77;;
41755;SDS011;27435;48.480;9.258;2024-01-15T12:37:40;4.63;;;2.30;;
41755;SDS011;27435;48.480;9.258;2024-01-15T12:40:07;4.63;;;2.23;;
41755;SDS011;27435;48.480;9.258;2024-01-15T12:42:35;7.00;;;3.20;;
41755;SDS011;27435;48.480;9.258;2024-01-15T12:45:07;8.13;;;3.80;;
41755;SDS011;27435;48.480;9.258;2024-01-15T12:47:34;9.37;;;4.03;;
41755;SDS011;27435;48.480;9.258;2024-01-15T12:50:01;7.23;;;3.03;;
41755;SDS011;27435;48.480;9.258;2024-01-15T12:52:27;10.47;;;4.30;;
41755;SDS011;27435;48.480;9.258;2024-01-15T12:54:53;14.37;;;5.13;;
41755;SDS011;27435;48.480;9.258;2024-01-15T12:57:18;9.40;;;2.57;;
41755;SDS011;27435;48.480;9.258;2024-01-15T12:59:44;6.83;;;2.70;;
41755;SDS011;27435;48.480;9.258;2024-01-15T13:02:11;8.07;;;2.47;;
41755;SDS011;27435;48.480;9.258;2024-01-15T13:04:37;6.43;;;2.80;;
41755;SDS011;27435;48.480;9.258;2024-01-15T13:07:03;4.80;;;2.30;;
41755;SDS011;27435;48.480;9.258;2024-01-15T13:09:30;6.07;;;2.90;;
41755;SDS011;27435;48.480;9.258;2024-01-15T13:11:55;8.13;;;3.20;;
41755;SDS011;27435;48.480;9.258;2024-01-15T13:14:21;8.33;;;3.03;;
41755;SDS011;27435;48.480;9.258;2024-01-15T13:16:47;9.83;;;3.90;;
41755;SDS011;27435;48.480;9.258;2024-01-15T13:19:13;11.00;;;4.60;;
41755;SDS011;27435;48.480;9.258;2024-01-15T13:21:42;6.27;;;2.93;;
41755;SDS011;27435;48.480;9.258;2024-01-15T13:24:08;7.30;;;2.97;;
41755;SDS011;27435;48.480;9.258;2024-01-15T13:26:34;5.30;;;2.87;;
41755;SDS011;27435;48.480;9.258;2024-01-15T13:29:03;7.60;;;3.17;;
41755;SDS011;27435;48.480;9.258;2024-01-15T13:31:29;5.97;;;2.70;;
41755;SDS011;27435;48.480;9.258;2024-01-15T13:33:56;6.23;;;2.63;;
41755;SDS011;27435;48.480;9.258;2024-01-15T13:36:22;10.10;;;3.37;;
41755;SDS011;27435;48.480;9.258;2024-01-15T13:38:48;6.80;;;2.90;;
41755;SDS011;27435;48.480;9.258;2024-01-15T13:41:15;7.67;;;3.13;;
41755;SDS011;27435;48.480;9.258;2024-01-15T13:43:43;10.93;;;4.20;;
41755;SDS011;27435;48.480;9.258;2024-01-15T13:46:16;10.17;;;3.07;;
41755;SDS011;27435;48.480;9.258;2024-01-15T13:48:42;9.37;;;3.57;;
41755;SDS011;27435;48.480;9.258;2024-01-15T13:51:08;7.83;;;3.10;;
41755;SDS011;27435;48.480;9.258;2024-01-15T13:53:34;8.90;;;3.87;;
41755;SDS011;27435;48.480;9.258;2024-01-15T13:56:00;11.13;;;3.70;;
41755;SDS011;27435;48.480;9.258;2024-01-15T13:58:25;9.13;;;3.90;;
41755;SDS011;27435;48.480;9.258;2024-01-15T14:00:51;9.63;;;4.13;;
41755;SDS011;27435;48.480;9.258;2024-01-15T14:03:17;7.40;;;3.17;;
41755;SDS011;27435;48.480;9.258;2024-01-15T14:05:44;9.87;;;3.90;;
41755;SDS011;27435;48.480;9.258;2024-01-15T14:08:09;8.03;;;4.10;;
41755;SDS011;27435;48.480;9.258;2024-01-15T14:10:35;11.30;;;3.50;;
41755;SDS011;27435;48.480;9.258;2024-01-15T14:13:02;7.77;;;3.13;;
41755;SDS011;27435;48.480;9.258;2024-01-15T14:15:28;6.47;;;3.17;;
41755;SDS011;27435;48.480;9.258;2024-01-15T14:17:54;8.20;;;3.13;;
41755;SDS011;27435;48.480;9.258;2024-01-15T14:20:20;10.07;;;4.17;;
41755;SDS011;27435;48.480;9.258;2024-01-15T14:22:45;9.97;;;3.83;;
41755;SDS011;27435;48.480;9.258;2024-01-15T14:25:11;9.97;;;3.23;;
41755;SDS011;27435;48.480;9.258;2024-01-15T14:27:36;10.40;;;3.87;;
41755;SDS011;27435;48.480;9.258;2024-01-15T14:30:02;6.67;;;3.10;;
41755;SDS011;27435;48.480;9.258;2024-01-15T14:32:28;12.27;;;4.27;;
41755;SDS011;27435;48.480;9.258;2024-01-15T14:34:54;8.13;;;3.90;;
41755;SDS011;27435;48.480;9.258;2024-01-15T14:37:21;11.50;;;4.47;;
41755;SDS011;27435;48.480;9.258;2024-01-15T14:39:47;17.77;;;4.87;;
41755;SDS011;27435;48.480;9.258;2024-01-15T14:42:12;14.17;;;5.33;;
41755;SDS011;27435;48.480;9.258;2024-01-15T14:44:38;35.83;;;10.00;;
41755;SDS011;27435;48.480;9.258;2024-01-15T14:47:05;12.43;;;5.43;;
41755;SDS011;27435;48.480;9.258;2024-01-15T14:49:31;9.37;;;4.50;;
41755;SDS011;27435;48.480;9.258;2024-01-15T14:51:57;10.37;;;3.83;;
41755;SDS011;27435;48.480;9.258;2024-01-15T14:54:22;9.17;;;3.93;;
41755;SDS011;27435;48.480;9.258;2024-01-15T14:56:48;6.10;;;3.20;;
41755;SDS011;27435;48.480;9.258;2024-01-15T14:59:14;11.53;;;3.90;;
41755;SDS011;27435;48.480;9.258;2024-01-15T15:01:39;12.57;;;3.93;;
41755;SDS011;27435;48.480;9.258;2024-01-15T15:04:06;7.77;;;3.27;;
41755;SDS011;27435;48.480;9.258;2024-01-15T15:06:33;11.87;;;4.97;;
41755;SDS011;27435;48.480;9.258;2024-01-15T15:08:59;9.20;;;3.43;;
41755;SDS011;27435;48.480;9.258;2024-01-15T15:11:27;7.47;;;3.40;;
41755;SDS011;27435;48.480;9.258;2024-01-15T15:13:53;10.07;;;4.13;;
41755;SDS011;27435;48.480;9.258;2024-01-15T15:16:18;9.50;;;4.40;;
41755;SDS011;27435;48.480;9.258;2024-01-15T15:18:44;13.50;;;4.00;;
41755;SDS011;27435;48.480;9.258;2024-01-15T15:21:11;8.20;;;3.50;;
41755;SDS011;27435;48.480;9.258;2024-01-15T15:23:37;11.23;;;5.00;;
41755;SDS011;27435;48.480;9.258;2024-01-15T15:26:04;11.10;;;4.93;;
41755;SDS011;27435;48.480;9.258;2024-01-15T15:28:30;6.97;;;3.30;;
41755;SDS011;27435;48.480;9.258;2024-01-15T15:30:55;10.40;;;4.07;;
41755;SDS011;27435;48.480;9.258;2024-01-15T15:33:22;10.23;;;3.80;;
41755;SDS011;27435;48.480;9.258;2024-01-15T15:35:47;9.13;;;3.47;;
41755;SDS011;27435;48.480;9.258;2024-01-15T15:38:16;7.13;;;3.23;;